Air Resources Laboratory banner image
Air Resources Laboratory web site National Oceanic and Atmospheric Administration (NOAA)

oh metar


KAKR 190854Z AUTO 36003KT 6SM BR OVC006 03/02 A3011 RMK AO2 SLP204 T00330017
 58005=
KAOH 190853Z AUTO 03003KT 1/4SM FG VV002 00/M01 A3012 RMK AO2 SLP209 I1000
 I3000 T00001006 56005 $=
KBJJ 190856Z AUTO 03003KT 3SM BR OVC003 02/02 A3012 RMK AO2 CIG 002V007 SLP208
 T00170017 58006=
KBKL 190853Z AUTO 26007KT 10SM OVC025 04/M01 A3013 RMK AO2 SLP207 T00391006
 58004 $=
KCAK 190851Z 00000KT 1SM R23/P6000FT BR OVC003 03/01 A3011 RMK AO2 SFC VIS 2
 SLP206 T00280011 58006=
KCLE 190851Z 00000KT 10SM OVC022 03/01 A3015 RMK AO2 SLP216 T00280011 58005=
KCMH 190851Z 36005KT 2 1/2SM -RA BR OVC008 04/03 A3011 RMK AO2 SFC VIS 3 SLP199
 P0000 60000 T00390028 58006=
KDAY 190856Z 01005KT 2SM -RA BR OVC003 03/02 A3012 RMK AO2 SFC VIS 3 SLP207
 P0008 60012 T00280017 56005 $=
KDFI 190853Z AUTO 00000KT 5SM BR OVC020 01/M01 A3013 RMK AO2 SLP211 T00111006
 58006=
KFDY 190853Z AUTO 00000KT 1/2SM FG VV002 01/00 A3013 RMK AO2 SLP205 T00060000
 56004=
KFFO 190856Z 34003KT 3SM -RA BR OVC006 03/02 A3012 RMK AO2A SLP208 P0006 60007
 T00330021 55004=
KHAO 190853Z AUTO 04003KT 2 1/2SM -RA BR BKN005 BKN011 OVC030 04/03 A3012 RMK
 AO2 SLP202 P0005 60009 T00440033 56007=
KHZY 190853Z AUTO 00000KT 4SM BR OVC033 02/02 A3013 RMK AO2 SLP211 60000
 T00170017 58002=
KILN 190854Z AUTO 05006KT 4SM -RA BR OVC005 03/02 A3010 RMK AO2 RAB15 SLP209
 P0000 60000 T00330022 55005=
KLCK 190855Z AUTO 01005KT 4SM -RA OVC011 04/03 A3010 RMK AO2 T00350028=
KLHQ 190853Z AUTO 04004KT 4SM -RA BR OVC011 04/03 A3011 RMK AO2 RAB38 SLP198
 P0000 60000 T00440033 58002=
KLNN 190855Z AUTO 00000KT 7SM OVC023 03/01 A3013 RMK AO1 T00250005=
KLPR 190853Z AUTO 32007KT 9SM OVC020 02/M01 A3014 RMK AO2 SLP212 T00221011
 58004=
KLUK 190853Z AUTO 03003KT 5SM -RA BR OVC015 06/04 A3012 RMK AO2 RAB31 SLP201
 P0001 60001 T00560044 56003=
KMFD 190852Z AUTO 03003KT 3SM BR OVC007 01/01 A3010 RMK AO2 CIG 003V009 SLP204
 T00110011 58009=
KMGY 190853Z AUTO 03003KT 2 1/2SM RA BR OVC007 04/03 A3010 RMK AO2 SLP197 P0004
 60006 T00440033 55002=
KMNN 190853Z AUTO 4SM BR FEW005 OVC011 02/02 A3012 RMK AO2 SLP210 T00170017
 58008=
KOSU 190853Z AUTO 02005KT 3SM RA BR OVC005 03/02 A3011 RMK AO2 UPB26E28 SLP203
 P0002 60002 T00280022 58006=
KPHD 190853Z AUTO 00000KT 6SM BR FEW016 BKN024 OVC031 03/02 A3012 RMK AO2
 RAB19E39 SLP207 P0000 60000 T00330017 58006=
KSGH 190856Z AUTO 04005KT 3SM -RA BR BKN005 BKN012 OVC034 03/03 A3011 RMK AO2
 CIG 003V008 SLP204 P0002 60002 T00280028 58005 $=
KTDZ 190853Z AUTO 20003KT 1 3/4SM BR OVC030 01/00 A3015 RMK AO2 SLP215
 T00060000 56004=
KTOL 190852Z 00000KT 1/2SM FZFG BKN002 OVC026 M01/M02 A3014 RMK AO2 SLP213
 T10061017 56004 RVRNO $=
KTZR 190855Z AUTO 02004KT 3SM -RA OVC007 03/02 A3011 RMK AO2 T00280023=
KVTA 190854Z AUTO 00000KT 3SM BR OVC006 04/03 A3010 RMK AO2 RAE03 SLP197 P0001
 60001 T00390028 58008=
KYNG 190851Z 00000KT 1/4SM -DZ FG VV001 02/02 A3011 RMK AO2 SLP208 P0000 60000
 I3000 T00170017 56002 $=
KZZV 190853Z AUTO 05004KT 2 1/2SM BR BKN006 OVC017 04/03 A3011 RMK AO2 RAE46
 SLP198 P0001 60002 T00440028 56008=